Endeavor, Pennsylvania
Current Conditions -  °F | °C
As of 2:15 PM on Friday 21 Nov 2014 (Local Time) from KFKL Reporting Station
Overcast Overcast  
Wind Chill: 11°   Ceiling: 3400
Heat Index: 21°   Visibility: 10mi
Dew Point:   Wind: 9mph
Humidity: 58%   Direction: 270°W
Pressure: 30.42"   Gusts: NA
Location:  41.59°N, 79.39°W
Report Text: KFKL 211915Z AUTO 27008KT 10SM OVC034 M06/M13 A3042 RMK AO1
Loading
Personal Weather Stations






























Interactive Weather Map New forecast layout! Learn more

10-Day Weather Forecast

Advertisements
Track Severe Weather on mobile